Time;durP1;ratioP1;P1;durP2;ratioP2;P2;SDS_P1;SDS_P2;PMS_P1;PMS_P2;Temp;Humidity;BMP_temperature;BMP_pressure;BME280_temperature;BME280_humidity;BME280_pressure;Samples;Min_cycle;Max_cycle;Signal;HPM_P1;HPM_P2
2022/12/22 03:26:51;;;;;;;103.80;47.20;;;;;;;1.13;98.71;98113.66;102911;1307;22485;-76
2022/12/22 03:29:17;;;;;;;100.70;46.70;;;;;;;1.11;98.58;98110.52;103064;1288;22520;-76
2022/12/22 03:31:44;;;;;;;100.50;47.60;;;;;;;1.09;98.78;98118.09;102863;1282;138265;-76
2022/12/22 03:34:10;;;;;;;94.10;47.70;;;;;;;1.08;98.79;98117.90;103007;1294;24260;-75
2022/12/22 03:36:36;;;;;;;94.50;44.30;;;;;;;1.06;98.70;98113.28;103235;1289;140705;-76
2022/12/22 03:39:03;;;;;;;90.60;45.40;;;;;;;1.03;98.58;98109.45;102968;1313;24337;-75
2022/12/22 03:47:01;;;;;;;83.90;41.80;;;;;;;0.95;98.97;98102.70;102855;1306;25556;-75
2022/12/22 03:49:27;;;;;;;78.90;38.90;;;;;;;0.92;98.89;98105.48;103271;1288;138245;-75
2022/12/22 03:51:53;;;;;;;79.10;37.40;;;;;;;0.90;98.86;98107.23;102998;1313;22597;-76
2022/12/22 03:54:22;;;;;;;78.80;38.90;;;;;;;0.87;99.10;98107.56;102984;1298;138655;-75
2022/12/22 03:56:49;;;;;;;72.10;35.30;;;;;;;0.87;99.24;98116.70;103338;1291;25254;-76
2022/12/22 03:59:16;;;;;;;75.30;38.50;;;;;;;0.86;99.29;98122.73;102986;1313;22487;-76
2022/12/22 04:01:49;;;;;;;76.60;36.30;;;;;;;0.86;99.55;98126.69;103050;1289;138445;-76
2022/12/22 04:04:17;;;;;;;76.40;36.60;;;;;;;0.86;99.69;98124.15;103383;1282;22604;-76
2022/12/22 04:06:45;;;;;;;73.50;34.80;;;;;;;0.86;99.76;98121.54;102871;1292;138397;-76
2022/12/22 04:09:11;;;;;;;70.30;33.90;;;;;;;0.87;99.81;98120.36;103376;1286;25227;-76
2022/12/22 04:14:23;;;;;;;73.30;36.00;;;;;;;0.88;99.98;98105.60;102981;1290;139686;-75
2022/12/22 04:16:50;;;;;;;75.40;35.20;;;;;;;0.87;99.98;98100.80;103295;1304;22705;-76
2022/12/22 04:19:16;;;;;;;72.60;34.30;;;;;;;0.87;99.98;98094.34;103006;1289;138283;-75
2022/12/22 04:21:43;;;;;;;75.70;34.30;;;;;;;0.89;100.00;98103.59;103014;1313;24282;-75
2022/12/22 04:24:11;;;;;;;71.80;34.40;;;;;;;0.90;100.00;98101.20;103001;1291;24443;-75
2022/12/22 04:26:38;;;;;;;77.60;35.50;;;;;;;0.91;100.00;98104.22;103331;1291;138024;-75
2022/12/22 04:29:04;;;;;;;72.40;36.50;;;;;;;0.92;100.00;98109.35;103211;1289;22458;-75
2022/12/22 04:31:30;;;;;;;70.60;34.90;;;;;;;0.91;99.93;98110.25;102960;1281;139467;-76
2022/12/22 04:33:57;;;;;;;82.90;39.40;;;;;;;0.91;99.96;98105.67;102979;1298;22580;-75
2022/12/22 04:36:23;;;;;;;81.90;38.20;;;;;;;0.91;99.81;98106.38;102834;1313;138532;-75
2022/12/22 04:38:49;;;;;;;80.10;38.40;;;;;;;0.90;99.78;98100.05;102937;1304;22898;-76
2022/12/22 04:41:15;;;;;;;79.30;38.20;;;;;;;0.89;99.93;98093.00;103003;1289;22477;-76
2022/12/22 04:43:41;;;;;;;87.30;40.20;;;;;;;0.88;99.94;98090.83;102907;1291;138091;-76
2022/12/22 04:46:07;;;;;;;85.20;40.90;;;;;;;0.87;99.96;98092.94;102992;1289;22488;-76
2022/12/22 04:48:33;;;;;;;87.10;42.00;;;;;;;0.86;99.98;98088.80;102920;1298;138468;-75
2022/12/22 04:51:01;;;;;;;90.90;42.80;;;;;;;0.85;100.00;98087.60;102942;1281;22484;-75
2022/12/22 04:53:29;;;;;;;82.20;42.70;;;;;;;0.85;99.98;98085.38;103179;1289;22478;-75
2022/12/22 04:56:13;;;;;;;89.70;40.00;;;;;;;0.85;100.00;98079.14;102954;1299;138270;-75
2022/12/22 04:58:39;;;;;;;97.60;44.20;;;;;;;0.84;100.00;98073.15;102866;1313;22473;-75
2022/12/22 05:01:13;;;;;;;88.10;40.90;;;;;;;0.83;99.94;98072.44;102752;1307;138261;-75
2022/12/22 05:03:40;;;;;;;81.50;41.50;;;;;;;0.82;99.97;98065.71;102916;1313;22519;-76
2022/12/22 05:06:07;;;;;;;88.00;43.10;;;;;;;0.82;100.00;98068.17;102910;1299;25284;-75
2022/12/22 05:08:33;;;;;;;86.00;43.60;;;;;;;0.82;100.00;98065.55;102933;1298;138062;-75
2022/12/22 05:10:59;;;;;;;93.60;44.70;;;;;;;0.81;99.99;98065.98;102876;1289;25220;-75
2022/12/22 05:13:25;;;;;;;88.80;43.90;;;;;;;0.81;99.90;98064.83;102919;1305;138578;-76
2022/12/22 05:15:52;;;;;;;88.70;42.10;;;;;;;0.81;99.98;98068.00;102883;1288;23377;-76
2022/12/22 05:18:18;;;;;;;89.70;44.20;;;;;;;0.81;100.00;98061.95;102938;1290;138316;-76
2022/12/22 05:20:44;;;;;;;104.90;47.80;;;;;;;0.81;100.00;98061.33;103141;1289;22899;-76
2022/12/22 05:23:10;;;;;;;92.40;47.40;;;;;;;0.82;100.00;98064.35;102953;1289;22531;-75
2022/12/22 05:25:36;;;;;;;94.20;45.30;;;;;;;0.82;100.00;98068.42;102997;1313;138238;-76
2022/12/22 05:28:03;;;;;;;92.50;46.20;;;;;;;0.81;99.97;98070.73;103331;1288;22837;-75
2022/12/22 05:30:29;;;;;;;101.60;47.30;;;;;;;0.80;99.92;98066.59;102966;1295;138402;-76
2022/12/22 05:32:55;;;;;;;97.50;47.10;;;;;;;0.79;99.96;98061.42;103132;1288;22672;-75
2022/12/22 05:35:21;;;;;;;92.80;44.80;;;;;;;0.79;99.99;98057.55;103277;1296;25358;-75
2022/12/22 05:37:47;;;;;;;92.80;44.70;;;;;;;0.78;99.95;98060.15;103139;1298;139725;-76
2022/12/22 05:40:14;;;;;;;101.30;45.90;;;;;;;0.78;99.96;98056.23;103146;1289;23064;-75
2022/12/22 05:42:40;;;;;;;100.50;48.40;;;;;;;0.78;100.00;98053.06;103407;1297;139023;-75
2022/12/22 05:45:20;;;;;;;102.80;49.30;;;;;;;0.77;99.94;98051.69;103208;1305;24281;-75
2022/12/22 05:47:51;;;;;;;99.80;49.80;;;;;;;0.76;99.88;98054.84;103078;1291;25372;-75
2022/12/22 05:50:21;;;;;;;99.00;48.70;;;;;;;0.75;99.96;98047.09;103283;1288;138144;-75
2022/12/22 05:52:58;;;;;;;98.60;48.70;;;;;;;0.75;99.96;98049.23;102918;1289;22475;-75
2022/12/22 05:55:24;;;;;;;89.00;42.80;;;;;;;0.74;99.96;98045.55;103978;1305;141662;-75
2022/12/22 05:57:50;;;;;;;98.60;43.80;;;;;;;0.73;99.97;98041.21;102962;1291;22448;-76
2022/12/22 06:00:17;;;;;;;89.90;42.10;;;;;;;0.75;99.96;98049.31;103510;1313;24224;-76
2022/12/22 06:02:43;;;;;;;96.90;44.80;;;;;;;0.74;99.98;98049.02;103105;1291;139872;-76
2022/12/22 06:05:12;;;;;;;89.30;43.40;;;;;;;0.74;99.97;98044.40;103441;1292;22523;-75
2022/12/22 06:07:38;;;;;;;97.70;45.20;;;;;;;0.74;99.99;98047.88;103335;1290;138076;-76
2022/12/22 06:10:06;;;;;;;87.50;42.60;;;;;;;0.74;99.97;98048.98;103522;1313;24267;-76
2022/12/22 06:12:32;;;;;;;90.90;44.20;;;;;;;0.75;100.00;98051.88;103766;1292;138598;-75
2022/12/22 06:14:58;;;;;;;95.80;43.10;;;;;;;0.75;100.00;98052.98;103568;1288;23347;-76
2022/12/22 06:17:24;;;;;;;84.60;38.80;;;;;;;0.75;99.99;98056.77;103227;1298;25465;-76
2022/12/22 06:19:51;;;;;;;77.00;39.70;;;;;;;0.75;100.00;98061.36;103562;1313;138078;-76
2022/12/22 06:22:17;;;;;;;80.40;38.40;;;;;;;0.76;100.00;98062.68;103450;1304;22502;-76
2022/12/22 06:24:43;;;;;;;77.80;38.30;;;;;;;0.77;100.00;98060.79;103772;1289;140575;-76
2022/12/22 06:27:11;;;;;;;75.60;36.90;;;;;;;0.79;100.00;98061.80;104455;1298;22333;-76
2022/12/22 06:29:37;;;;;;;77.10;37.20;;;;;;;0.81;100.00;98059.96;102949;1313;25315;-76
2022/12/22 06:32:04;;;;;;;73.60;36.20;;;;;;;0.82;100.00;98061.45;103340;1284;138307;-76
2022/12/22 06:34:30;;;;;;;71.30;35.60;;;;;;;0.84;100.00;98067.05;103007;1300;24443;-76
2022/12/22 06:36:56;;;;;;;74.30;37.00;;;;;;;0.86;100.00;98067.31;103028;1297;138730;-76
2022/12/22 06:39:22;;;;;;;79.70;36.70;;;;;;;0.88;100.00;98067.25;103255;1298;22604;-76
2022/12/22 06:44:33;;;;;;;73.00;34.60;;;;;;;0.92;100.00;98063.89;103368;1290;138681;-76
2022/12/22 06:46:59;;;;;;;63.40;32.40;;;;;;;0.95;100.00;98061.03;103421;1303;22739;-76
2022/12/22 06:49:26;;;;;;;64.00;31.00;;;;;;;0.97;100.00;98052.43;103279;1298;138498;-76
2022/12/22 06:51:52;;;;;;;71.90;34.10;;;;;;;0.98;100.00;98045.15;103008;1298;22490;-76
2022/12/22 06:54:18;;;;;;;64.00;31.40;;;;;;;1.01;100.00;98044.29;103617;1289;22481;-77
2022/12/22 06:56:44;;;;;;;63.00;30.90;;;;;;;1.04;100.00;98041.73;103117;1291;139744;-76
2022/12/22 06:59:11;;;;;;;62.90;31.00;;;;;;;1.08;100.00;98041.39;103154;1297;22510;-76
2022/12/22 07:01:37;;;;;;;54.90;29.10;;;;;;;1.10;100.00;98044.84;102796;1300;138271;-76
2022/12/22 07:04:03;;;;;;;62.30;30.70;;;;;;;1.13;100.00;98045.34;103936;1283;23070;-77
2022/12/22 07:06:30;;;;;;;57.70;31.60;;;;;;;1.17;100.00;98045.75;103945;1291;138523;-76
2022/12/22 07:08:56;;;;;;;61.70;31.80;;;;;;;1.21;100.00;98044.95;104103;1284;22536;-76
2022/12/22 07:11:22;;;;;;;60.90;31.10;;;;;;;1.24;100.00;98051.52;103355;1297;22466;-76
2022/12/22 07:13:48;;;;;;;62.70;32.90;;;;;;;1.27;100.00;98057.41;103401;1284;140008;-77
2022/12/22 07:16:15;;;;;;;62.90;33.20;;;;;;;1.29;100.00;98054.17;104197;1289;22647;-78
2022/12/22 07:18:41;;;;;;;67.30;32.60;;;;;;;1.32;100.00;98047.27;105234;1298;140712;-77
2022/12/22 07:21:11;;;;;;;66.30;33.00;;;;;;;1.36;100.00;98041.42;104863;1289;23440;-77
2022/12/22 07:23:38;;;;;;;62.90;32.10;;;;;;;1.39;100.00;98037.80;104156;1303;22554;-76
2022/12/22 07:26:06;;;;;;;63.90;33.80;;;;;;;1.43;100.00;98032.80;105015;1289;138910;-77
2022/12/22 07:28:34;;;;;;;74.50;37.10;;;;;;;1.48;100.00;98029.36;103557;1304;24414;-77
2022/12/22 07:31:01;;;;;;;73.80;36.60;;;;;;;1.51;100.00;98025.91;103055;1307;138447;-76
2022/12/22 07:33:28;;;;;;;69.00;34.40;;;;;;;1.54;100.00;98027.98;104436;1287;25377;-76
2022/12/22 07:36:10;;;;;;;75.20;37.80;;;;;;;1.57;100.00;98033.17;103021;1294;23868;-77
2022/12/22 07:38:39;;;;;;;72.50;36.40;;;;;;;1.61;100.00;98036.62;103005;1313;139956;-77
2022/12/22 07:42:43;;;;;;;70.00;37.80;;;;;;;1.63;99.95;98035.59;103329;1307;24029;-77
2022/12/22 07:43:54;;;;;;;81.60;41.10;;;;;;;1.64;99.88;98032.96;102691;1300;138230;-77
2022/12/22 07:46:21;;;;;;;80.60;41.00;;;;;;;1.66;99.68;98029.79;103035;1312;22635;-77
2022/12/22 07:51:34;;;;;;;76.50;38.50;;;;;;;1.72;99.62;98024.46;103127;1313;22526;-77
2022/12/22 07:54:00;;;;;;;79.90;38.60;;;;;;;1.73;99.13;98021.12;103198;1313;23881;-76
2022/12/22 07:56:27;;;;;;;84.60;40.10;;;;;;;1.74;98.93;98018.52;103131;1291;138237;-78
2022/12/22 07:58:53;;;;;;;88.10;45.20;;;;;;;1.77;99.11;98023.27;102903;1291;25327;-78
2022/12/22 08:01:19;;;;;;;91.60;44.40;;;;;;;1.81;99.23;98016.65;102713;1313;138179;-77
2022/12/22 08:03:45;;;;;;;90.70;43.70;;;;;;;1.85;99.25;98009.44;102969;1306;22520;-77
2022/12/22 08:06:11;;;;;;;84.80;44.50;;;;;;;1.93;99.54;98004.39;103424;1313;24327;-78
2022/12/22 08:08:37;;;;;;;90.80;45.80;;;;;;;2.01;99.54;98002.98;103031;1304;138064;-77
2022/12/22 08:11:04;;;;;;;82.50;42.20;;;;;;;2.08;99.55;98006.72;102994;1312;24489;-78
2022/12/22 08:13:30;;;;;;;84.50;42.10;;;;;;;2.16;99.44;98012.89;102871;1307;138213;-79
2022/12/22 08:16:05;;;;;;;80.30;40.40;;;;;;;2.24;99.47;98015.52;103906;1291;22496;-79
2022/12/22 08:18:32;;;;;;;76.10;37.60;;;;;;;2.33;99.34;98009.48;103221;1313;138881;-79
2022/12/22 08:20:58;;;;;;;76.50;37.60;;;;;;;2.42;99.10;98011.19;102929;1289;22480;-79
2022/12/22 08:23:24;;;;;;;72.40;38.40;;;;;;;2.52;99.34;98002.14;103099;1313;23855;-79
2022/12/22 08:26:05;;;;;;;78.80;38.70;;;;;;;2.61;99.29;97999.52;103449;1307;138999;-79
2022/12/22 08:28:34;;;;;;;70.90;39.00;;;;;;;2.71;98.77;97995.30;102929;1312;24356;-79
2022/12/22 08:31:02;;;;;;;75.70;36.80;;;;;;;2.81;98.64;97995.06;102897;1291;138303;-79
2022/12/22 08:33:28;;;;;;;76.40;39.30;;;;;;;2.97;99.26;97995.05;103188;1313;25380;-79
2022/12/22 08:35:56;;;;;;;74.30;36.80;;;;;;;3.09;98.95;97996.78;103161;1292;24446;-78
2022/12/22 08:38:22;;;;;;;73.70;38.10;;;;;;;3.23;98.48;97997.43;102987;1285;138127;-79
2022/12/22 08:40:49;;;;;;;71.50;35.30;;;;;;;3.36;97.71;97994.43;102967;1312;24254;-79
2022/12/22 08:43:17;;;;;;;66.20;35.50;;;;;;;3.47;97.59;97986.08;103213;1288;138770;-79
2022/12/22 08:45:43;;;;;;;59.50;33.70;;;;;;;3.54;96.99;97983.29;103235;1285;25391;-79
2022/12/22 08:48:10;;;;;;;69.70;37.00;;;;;;;3.60;96.53;97986.30;103110;1312;24003;-79
2022/12/22 08:50:36;;;;;;;63.40;34.70;;;;;;;3.64;96.05;97980.95;102936;1289;139378;-79
2022/12/22 08:53:04;;;;;;;69.60;36.60;;;;;;;3.63;95.04;97981.89;103432;1289;22494;-79
2022/12/22 08:55:31;;;;;;;70.60;38.20;;;;;;;3.62;95.06;97976.85;103709;1312;138194;-79
2022/12/22 08:57:57;;;;;;;73.90;38.30;;;;;;;3.62;95.18;97972.37;103276;1297;22517;-79
2022/12/22 09:00:24;;;;;;;74.20;38.10;;;;;;;3.59;94.51;97968.83;103098;1296;22957;-79
2022/12/22 09:02:50;;;;;;;72.10;37.40;;;;;;;3.57;94.50;97958.15;103098;1284;22526;-79
2022/12/22 09:05:17;;;;;;;73.50;37.00;;;;;;;3.57;94.11;97956.40;103808;1292;24253;-79
2022/12/22 09:07:46;;;;;;;66.60;37.40;;;;;;;3.58;94.25;97953.66;102989;1306;138070;-80
2022/12/22 09:10:13;;;;;;;70.20;37.40;;;;;;;3.61;93.97;97955.27;103442;1298;22524;-79
2022/12/22 09:12:39;;;;;;;70.40;37.20;;;;;;;3.67;94.15;97955.23;102715;1295;138194;-79
2022/12/22 09:15:08;;;;;;;75.70;39.00;;;;;;;3.75;94.35;97957.88;102963;1300;25299;-79
2022/12/22 09:17:36;;;;;;;66.20;37.20;;;;;;;3.85;94.12;97952.86;103001;1284;22481;-80
2022/12/22 09:20:04;;;;;;;68.80;36.60;;;;;;;3.94;93.57;97945.14;103094;1298;139036;-79
2022/12/22 09:22:30;;;;;;;72.10;35.30;;;;;;;4.06;93.77;97937.25;103469;1288;24253;-79
2022/12/22 09:24:56;;;;;;;60.40;34.60;;;;;;;4.12;93.04;97934.52;103056;1287;138742;-79
2022/12/22 09:27:22;;;;;;;61.40;34.50;;;;;;;4.19;92.87;97926.02;103273;1297;24307;-79
2022/12/22 09:29:48;;;;;;;69.30;36.20;;;;;;;4.27;92.78;97919.11;103098;1283;22470;-80
2022/12/22 09:32:15;;;;;;;62.90;35.20;;;;;;;4.36;92.81;97914.84;103001;1306;138378;-79
2022/12/22 09:34:41;;;;;;;63.40;34.10;;;;;;;4.43;92.68;97911.14;102983;1308;22751;-79
2022/12/22 09:37:07;;;;;;;65.50;33.40;;;;;;;4.47;91.68;97912.55;103173;1291;141192;-79
2022/12/22 09:39:34;;;;;;;59.50;33.00;;;;;;;4.42;90.67;97911.14;103275;1289;22545;-79
2022/12/22 09:42:00;;;;;;;61.10;33.90;;;;;;;4.33;89.48;97906.97;103100;1289;25713;-79
2022/12/22 09:44:37;;;;;;;73.70;40.80;;;;;;;4.23;88.86;97905.02;102955;1289;139043;-79
2022/12/22 09:47:21;;;;;;;76.90;43.10;;;;;;;4.12;89.48;97890.70;103765;1306;22829;-79
2022/12/22 09:49:47;;;;;;;71.60;40.30;;;;;;;4.14;90.44;97882.97;103468;1289;139647;-79
2022/12/22 09:52:34;;;;;;;72.10;41.40;;;;;;;4.22;90.76;97881.06;102861;1297;22563;-79
2022/12/22 09:55:11;;;;;;;66.30;39.00;;;;;;;4.32;90.84;97878.41;102552;1291;138951;-80
2022/12/22 09:57:37;;;;;;;66.40;34.70;;;;;;;4.42;91.04;97887.22;103458;1290;22476;-79
2022/12/22 10:00:18;;;;;;;79.30;41.50;;;;;;;4.52;91.18;97891.90;102967;1291;25365;-79
2022/12/22 10:03:13;;;;;;;77.70;40.20;;;;;;;4.63;91.19;97882.27;102975;1305;137956;-79
2022/12/22 10:05:54;;;;;;;76.40;40.30;;;;;;;4.71;90.71;97877.46;103010;1297;22493;-79
2022/12/22 10:08:27;;;;;;;77.30;40.90;;;;;;;4.80;90.69;97872.27;103028;1306;138862;-79
2022/12/22 10:10:55;;;;;;;80.40;45.00;;;;;;;4.85;90.13;97866.09;103175;1306;22477;-79
2022/12/22 10:13:21;;;;;;;84.80;45.50;;;;;;;4.83;89.32;97859.01;102736;1304;138661;-79
2022/12/22 10:15:48;;;;;;;74.90;42.70;;;;;;;4.80;89.26;97854.23;102933;1292;22475;-79
2022/12/22 10:18:21;;;;;;;84.70;45.10;;;;;;;4.77;89.06;97858.08;103089;1304;22543;-79
2022/12/22 10:21:21;;;;;;;81.70;44.30;;;;;;;4.71;88.51;97855.92;103008;1305;139786;-79
2022/12/22 10:23:47;;;;;;;77.70;42.90;;;;;;;4.59;88.28;97849.16;103636;1290;24301;-79
2022/12/22 10:26:32;;;;;;;90.80;44.70;;;;;;;4.54;88.55;97840.73;102438;1290;139583;-79
2022/12/22 10:29:14;;;;;;;77.60;41.10;;;;;;;4.49;88.79;97837.95;102497;1310;24265;-79
2022/12/22 10:31:59;;;;;;;76.10;39.90;;;;;;;4.46;88.97;97840.98;102193;1304;140327;-79
2022/12/22 10:34:25;;;;;;;74.30;38.00;;;;;;;4.42;88.97;97838.14;102279;1321;24831;-79
2022/12/22 10:36:57;;;;;;;66.80;35.10;;;;;;;4.39;89.44;97829.34;102505;1296;140488;-79
2022/12/22 10:39:26;;;;;;;51.60;30.20;;;;;;;4.40;89.75;97822.78;102412;1306;24451;-79
2022/12/22 10:41:55;;;;;;;;;;;;;;;4.41;89.84;97819.77;102950;1290;22648;-78
2022/12/22 10:44:33;;;;;;;49.90;26.70;;;;;;;4.37;89.06;97824.08;105384;1304;125243;-79
2022/12/22 10:47:10;;;;;;;49.70;25.30;;;;;;;4.33;89.19;97822.84;102278;1318;22672;-78
2022/12/22 10:49:41;;;;;;;48.50;27.90;;;;;;;4.35;89.36;97822.02;102368;1297;139571;-78
2022/12/22 10:52:22;;;;;;;47.80;23.90;;;;;;;4.39;89.52;97814.83;102457;1310;22508;-78
2022/12/22 10:54:49;;;;;;;45.30;25.70;;;;;;;4.43;89.49;97807.65;102494;1296;139224;-77
2022/12/22 10:57:18;;;;;;;39.20;21.60;;;;;;;4.48;89.71;97802.00;102481;1298;22635;-77
2022/12/22 10:59:56;;;;;;;44.50;24.00;;;;;;;4.55;89.48;97801.89;102467;1304;22475;-77
2022/12/22 11:02:23;;;;;;;41.70;22.50;;;;;;;4.59;89.15;97797.21;102942;1304;138248;-77
2022/12/22 11:04:50;;;;;;;45.70;25.20;;;;;;;4.62;89.08;97791.76;103324;1291;22484;-78
2022/12/22 11:07:17;;;;;;;49.40;26.40;;;;;;;4.65;89.07;97790.02;102986;1298;138214;-77
2022/12/22 11:09:43;;;;;;;52.20;29.00;;;;;;;4.71;89.12;97788.67;103041;1297;25213;-77
2022/12/22 11:12:54;;;;;;;57.80;31.10;;;;;;;4.76;89.00;97783.42;103294;1289;22481;-77
2022/12/22 11:15:41;;;;;;;50.80;28.50;;;;;;;4.85;88.80;97778.34;102860;1300;22617;-77
2022/12/22 11:18:37;;;;;;;39.20;21.20;;;;;;;4.94;89.00;97776.08;102092;1313;24446;-77
2022/12/22 11:21:26;;;;;;;42.90;22.10;;;;;;;5.02;88.65;97777.16;102221;1299;22491;-77
2022/12/22 11:24:30;;;;;;;39.80;22.10;;;;;;;5.05;88.17;97776.35;101749;1310;22540;-77
2022/12/22 11:27:24;;;;;;;40.40;22.10;;;;;;;5.12;88.53;97776.81;101607;1310;138099;-77
2022/12/22 11:30:09;;;;;;;38.20;22.00;;;;;;;5.24;88.72;97771.31;101664;1310;24483;-77
2022/12/22 11:32:48;;;;;;;37.70;21.40;;;;;;;5.35;89.09;97765.89;101690;1293;138389;-77
2022/12/22 11:35:17;;;;;;;;;;;;;;;5.48;88.81;97764.35;101896;1297;24018;-77
2022/12/22 11:37:55;;;;;;;38.20;21.00;;;;;;;5.52;88.18;97762.46;101908;1310;124361;-77
2022/12/22 11:40:45;;;;;;;40.30;21.90;;;;;;;5.57;87.70;97758.31;101748;1316;22539;-78
2022/12/22 11:43:23;;;;;;;42.30;21.70;;;;;;;5.64;87.76;97753.96;101538;1302;138668;-78
2022/12/22 11:46:29;;;;;;;34.40;21.70;;;;;;;5.73;87.75;97756.21;102303;1310;25392;-77
2022/12/22 11:48:55;;;;;;;37.40;20.00;;;;;;;5.85;87.44;97753.41;101799;1324;138522;-77
2022/12/22 11:51:34;;;;;;;39.60;22.90;;;;;;;5.94;87.62;97751.00;102285;1317;22759;-78
2022/12/22 11:54:41;;;;;;;35.80;21.70;;;;;;;6.01;86.86;97751.39;103376;1292;22499;-78
2022/12/22 11:57:26;;;;;;;41.50;22.90;;;;;;;6.11;87.00;97745.86;103138;1303;22529;-78
2022/12/22 12:00:12;;;;;;;44.20;24.50;;;;;;;6.22;86.66;97745.10;103891;1302;25223;-78
2022/12/22 12:03:26;;;;;;;39.10;22.70;;;;;;;6.33;86.69;97746.21;103166;1294;138302;-77
2022/12/22 12:06:04;;;;;;;44.80;24.80;;;;;;;6.45;86.51;97742.91;105184;1305;22350;-78
2022/12/22 12:08:45;;;;;;;43.70;25.20;;;;;;;6.45;85.71;97739.02;105933;1311;138408;-78
2022/12/22 12:11:17;;;;;;;46.70;25.20;;;;;;;6.43;85.46;97733.46;105597;1320;22314;-78
2022/12/22 12:14:26;;;;;;;45.80;26.90;;;;;;;6.38;85.17;97728.52;105357;1319;138367;-77
2022/12/22 12:16:59;;;;;;;50.30;25.60;;;;;;;6.29;84.81;97725.85;103613;1287;23105;-77
2022/12/22 12:19:35;;;;;;;44.60;25.60;;;;;;;6.27;85.17;97726.77;103068;1318;140454;-77
2022/12/22 12:22:04;;;;;;;51.00;27.10;;;;;;;6.27;85.38;97722.08;103194;1295;22527;-77
2022/12/22 12:25:01;;;;;;;48.30;25.60;;;;;;;6.29;85.40;97719.79;102567;1295;25336;-77
2022/12/22 12:27:59;;;;;;;45.20;26.20;;;;;;;6.30;85.12;97718.60;102245;1304;22492;-77
2022/12/22 12:30:31;;;;;;;48.40;26.20;;;;;;;6.29;85.62;97714.48;102154;1321;24463;-77
2022/12/22 12:33:06;;;;;;;52.70;27.70;;;;;;;6.31;85.62;97717.87;102514;1295;139548;-77
2022/12/22 12:35:47;;;;;;;48.80;27.80;;;;;;;6.30;85.31;97717.21;102577;1304;23679;-77
2022/12/22 12:38:30;;;;;;;50.80;26.60;;;;;;;6.31;85.33;97714.09;102255;1295;138449;-77
2022/12/22 12:41:12;;;;;;;50.50;27.10;;;;;;;6.32;85.24;97709.54;102393;1319;24254;-78
2022/12/22 12:43:40;;;;;;;51.80;28.60;;;;;;;6.33;85.30;97706.19;102037;1288;138270;-77
2022/12/22 12:46:40;;;;;;;53.00;29.80;;;;;;;6.30;85.44;97704.83;103559;1306;22479;-77
2022/12/22 12:49:35;;;;;;;53.20;28.30;;;;;;;6.23;85.48;97704.94;103276;1298;140722;-77
2022/12/22 12:52:09;;;;;;;49.50;28.70;;;;;;;6.17;85.84;97697.45;103216;1310;22471;-77
2022/12/22 12:54:38;;;;;;;52.20;28.50;;;;;;;6.11;85.56;97694.92;103723;1284;22476;-77
2022/12/22 12:57:25;;;;;;;52.80;28.10;;;;;;;6.05;85.80;97688.05;103288;1290;138343;-77
2022/12/22 12:59:55;;;;;;;49.20;28.10;;;;;;;6.01;85.95;97689.08;103195;1292;22532;-77
2022/12/22 13:02:37;;;;;;;52.40;29.10;;;;;;;5.98;85.91;97682.85;103843;1286;138212;-77
2022/12/22 13:05:08;;;;;;;56.90;29.90;;;;;;;5.96;86.18;97685.20;103496;1289;24567;-77
2022/12/22 13:08:07;;;;;;;55.40;30.70;;;;;;;5.96;86.52;97683.98;103359;1298;138516;-78
2022/12/22 13:10:37;;;;;;;;;;;;;;;6.10;86.66;97684.30;106220;1303;22505;-77
2022/12/22 13:13:04;;;;;;;55.30;30.80;;;;;;;6.18;86.54;97676.09;106292;1285;125044;-78
2022/12/22 13:15:39;;;;;;;58.40;30.50;;;;;;;6.18;85.95;97669.48;106357;1285;22321;-78
2022/12/22 13:18:14;;;;;;;56.00;29.20;;;;;;;6.15;85.59;97666.05;106512;1299;22180;-78
2022/12/22 13:20:41;;;;;;;54.50;28.80;;;;;;;6.08;85.71;97659.72;106042;1303;139044;-78
2022/12/22 13:23:13;;;;;;;52.30;30.40;;;;;;;6.01;85.41;97660.87;103149;1303;24993;-77
2022/12/22 13:25:48;;;;;;;59.00;31.70;;;;;;;5.93;85.36;97670.01;103092;1281;139031;-77
2022/12/22 13:28:16;;;;;;;57.90;31.70;;;;;;;5.85;85.52;97673.77;103669;1281;24332;-77
2022/12/22 13:30:47;;;;;;;65.20;32.80;;;;;;;5.76;85.72;97676.95;103056;1307;22597;-78
2022/12/22 13:33:17;;;;;;;59.20;30.10;;;;;;;5.69;85.71;97683.26;103245;1289;138079;-78
2022/12/22 13:35:46;;;;;;;60.50;32.20;;;;;;;5.59;85.37;97688.91;103421;1310;22509;-78
2022/12/22 13:38:30;;;;;;;53.40;28.50;;;;;;;5.45;85.23;97679.56;104245;1301;138243;-78
2022/12/22 13:40:58;;;;;;;57.10;29.30;;;;;;;5.35;85.57;97671.23;103567;1288;22585;-78
2022/12/22 13:43:27;;;;;;;56.10;29.50;;;;;;;5.26;85.52;97665.02;103913;1289;139871;-77
2022/12/22 13:45:56;;;;;;;52.10;28.00;;;;;;;5.15;85.75;97667.38;104379;1290;22465;-77
2022/12/22 13:48:39;;;;;;;50.00;28.30;;;;;;;5.06;85.98;97670.95;103960;1288;22492;-77
2022/12/22 13:51:10;;;;;;;52.80;28.80;;;;;;;4.95;86.36;97667.27;102941;1305;138721;-77
2022/12/22 13:53:41;;;;;;;163.60;60.20;;;;;;;4.86;86.79;97675.27;103054;1297;25330;-76
2022/12/22 13:56:13;;;;;;;98.90;44.50;;;;;;;4.82;87.40;97672.67;103071;1305;138688;-76
2022/12/22 13:58:45;;;;;;;130.40;51.00;;;;;;;4.79;87.45;97666.94;103479;1287;25657;-76
2022/12/22 14:01:15;;;;;;;60.80;31.80;;;;;;;4.77;87.82;97666.38;105086;1282;138424;-77
2022/12/22 14:03:52;;;;;;;67.10;33.00;;;;;;;4.70;87.74;97665.06;104285;1289;22631;-76
2022/12/22 14:06:44;;;;;;;64.40;32.40;;;;;;;4.64;88.22;97671.05;103574;1297;25154;-76
2022/12/22 14:09:25;;;;;;;61.60;31.20;;;;;;;4.59;88.48;97663.05;103593;1287;138197;-76
2022/12/22 14:12:19;;;;;;;60.80;31.10;;;;;;;4.55;88.71;97660.76;103779;1304;24371;-76
2022/12/22 14:14:49;;;;;;;57.80;31.00;;;;;;;4.51;89.04;97662.92;102818;1313;139142;-76
2022/12/22 14:17:15;;;;;;;;;;;;;;;4.48;89.23;97669.85;103076;1291;25318;-76
2022/12/22 14:19:41;;;;;;;63.60;32.40;;;;;;;4.42;89.39;97670.59;102967;1288;124179;-76
2022/12/22 14:22:14;;;;;;;61.40;31.00;;;;;;;4.35;89.45;97665.36;102982;1288;22482;-76
2022/12/22 14:24:57;;;;;;;62.80;33.40;;;;;;;4.27;89.22;97664.58;103115;1291;22499;-76
2022/12/22 14:27:56;;;;;;;55.60;32.00;;;;;;;4.16;89.05;97657.70;103160;1288;23261;-76
2022/12/22 14:30:26;;;;;;;64.50;31.60;;;;;;;4.03;89.03;97651.27;103352;1304;22487;-76
2022/12/22 14:32:54;;;;;;;66.70;32.80;;;;;;;3.94;89.14;97653.73;102982;1289;138281;-76
2022/12/22 14:35:25;;;;;;;69.10;33.40;;;;;;;3.85;89.68;97653.31;103007;1289;25344;-76
2022/12/22 14:38:07;;;;;;;69.60;34.80;;;;;;;3.77;89.98;97655.05;103300;1298;138131;-76
2022/12/22 14:40:37;;;;;;;64.60;32.60;;;;;;;3.68;90.11;97655.79;103037;1289;22482;-76
2022/12/22 14:43:29;;;;;;;67.90;35.40;;;;;;;3.61;90.29;97658.20;102927;1288;138349;-76
2022/12/22 14:46:06;;;;;;;73.20;35.00;;;;;;;3.53;90.58;97657.08;103614;1282;22539;-76
2022/12/22 14:48:38;;;;;;;79.70;35.80;;;;;;;3.44;90.87;97651.36;106433;1297;23872;-76
2022/12/22 14:51:05;;;;;;;75.00;37.70;;;;;;;3.36;90.90;97657.24;102924;1295;138121;-76
2022/12/22 14:53:47;;;;;;;73.80;37.80;;;;;;;3.30;91.30;97661.93;103183;1298;22645;-76
2022/12/22 14:56:16;;;;;;;69.00;34.20;;;;;;;3.23;91.17;97662.45;103034;1304;139032;-76
2022/12/22 14:58:45;;;;;;;73.40;36.20;;;;;;;3.19;91.53;97661.20;103057;1298;22497;-76
2022/12/22 15:01:18;;;;;;;73.00;36.40;;;;;;;3.14;92.06;97662.48;102739;1297;140726;-76
2022/12/22 15:04:00;;;;;;;86.80;41.40;;;;;;;3.12;92.61;97660.31;102983;1313;22481;-76
2022/12/22 15:06:26;;;;;;;109.80;52.70;;;;;;;3.10;92.93;97655.94;102904;1297;22551;-76
2022/12/22 15:09:13;;;;;;;113.10;54.00;;;;;;;3.09;93.01;97647.17;102972;1305;139201;-76
2022/12/22 15:11:44;;;;;;;112.50;50.20;;;;;;;3.06;92.97;97648.48;102944;1313;25326;-76
2022/12/22 15:14:20;;;;;;;102.30;49.30;;;;;;;3.03;93.20;97649.52;102981;1295;138864;-76
2022/12/22 15:16:46;;;;;;;102.50;49.30;;;;;;;3.01;93.17;97647.91;103603;1313;24250;-76